Time;durP1;ratioP1;P1;durP2;ratioP2;P2;SDS_P1;SDS_P2;PMS_P1;PMS_P2;Temp;Humidity;BMP_temperature;BMP_pressure;BME280_temperature;BME280_humidity;BME280_pressure;Samples;Min_cycle;Max_cycle;Signal;HPM_P1;HPM_P2
2022/03/21 00:02:07;;;;;;;53.92;37.90;;;;;;;-0.76;85.20;102983.09;4753279;30;20044;-75
2022/03/21 00:04:32;;;;;;;53.80;37.60;;;;;;;-0.90;84.96;102957.44;4753129;30;20039;-74
2022/03/21 00:06:57;;;;;;;49.42;37.22;;;;;;;-0.79;85.23;102975.41;4737286;30;20496;-74
2022/03/21 00:09:23;;;;;;;48.90;36.75;;;;;;;-0.83;85.41;102981.25;4753169;30;20481;-74
2022/03/21 00:11:50;;;;;;;52.85;37.92;;;;;;;-0.98;85.35;102966.63;4753316;30;20030;-75
2022/03/21 00:14:15;;;;;;;50.72;36.35;;;;;;;-0.94;85.13;102994.59;4752941;30;20042;-74
2022/03/21 00:16:41;;;;;;;49.50;36.38;;;;;;;-1.02;85.42;102983.44;4753181;30;20480;-75
2022/03/21 00:19:10;;;;;;;51.15;37.42;;;;;;;-1.00;85.36;102984.31;4752800;30;20079;-74
2022/03/21 00:21:35;;;;;;;50.78;36.70;;;;;;;-1.08;85.43;102979.91;4753435;30;20048;-75
2022/03/21 00:24:02;;;;;;;49.35;36.60;;;;;;;-1.01;85.72;102991.91;4752883;30;20394;-74
2022/03/21 00:26:28;;;;;;;50.90;36.42;;;;;;;-1.14;85.58;102980.66;4752871;30;20024;-74
2022/03/21 00:28:53;;;;;;;51.53;36.75;;;;;;;-1.24;85.54;102968.63;4753150;30;20028;-75
2022/03/21 00:31:19;;;;;;;52.45;35.60;;;;;;;-1.26;85.89;102972.84;4753023;30;20091;-74
2022/03/21 00:33:44;;;;;;;53.53;38.90;;;;;;;-1.15;85.86;102999.25;4737058;30;20036;-74
2022/03/21 00:36:10;;;;;;;51.58;36.78;;;;;;;-1.24;86.17;102989.78;4751936;30;20048;-74
2022/03/21 00:38:41;;;;;;;53.55;39.15;;;;;;;-1.20;86.24;102996.59;4752931;30;20032;-73
2022/03/21 00:41:10;;;;;;;53.60;38.13;;;;;;;-1.20;86.42;103000.81;4752856;30;20040;-74
2022/03/21 00:43:35;;;;;;;49.60;37.08;;;;;;;-1.27;86.61;102999.00;4752725;30;20093;-75
2022/03/21 00:46:01;;;;;;;51.30;36.72;;;;;;;-1.30;86.66;102998.91;4752824;30;20028;-75
2022/03/21 00:48:28;;;;;;;52.40;36.97;;;;;;;-1.30;86.95;103009.06;4752648;30;20032;-75
2022/03/21 00:50:56;;;;;;;52.72;37.13;;;;;;;-1.52;87.07;102972.28;4736297;30;20044;-74
2022/03/21 00:53:22;;;;;;;49.75;36.17;;;;;;;-1.35;87.08;103005.59;4752495;30;20046;-75
2022/03/21 00:55:49;;;;;;;51.28;36.50;;;;;;;-1.40;87.31;102999.53;4752546;30;20111;-74
2022/03/21 00:58:15;;;;;;;53.60;37.85;;;;;;;-1.49;87.49;102985.00;4752754;30;20032;-74
2022/03/21 01:00:41;;;;;;;52.08;37.17;;;;;;;-1.60;87.35;102968.72;4752738;30;20036;-73
2022/03/21 01:03:06;;;;;;;53.47;38.17;;;;;;;-1.40;87.49;103004.63;4752616;30;20469;-75
2022/03/21 01:05:32;;;;;;;54.63;38.47;;;;;;;-1.39;87.73;103011.41;4752361;30;20119;-78
2022/03/21 01:07:58;;;;;;;50.92;37.10;;;;;;;-1.62;87.44;102977.97;4752347;30;20032;-74
2022/03/21 01:10:26;;;;;;;54.13;37.60;;;;;;;-1.45;87.79;103007.91;4752277;30;20028;-74
2022/03/21 01:12:53;;;;;;;53.15;37.63;;;;;;;-1.46;87.46;103013.81;4752260;30;20047;-74
2022/03/21 01:15:20;;;;;;;55.00;38.83;;;;;;;-1.48;87.92;103012.03;4736701;30;20507;-74
2022/03/21 01:17:48;;;;;;;51.47;37.53;;;;;;;-1.52;88.01;103013.66;4752198;30;20127;-75
2022/03/21 01:20:16;;;;;;;53.47;39.33;;;;;;;-1.58;88.23;103005.06;4751937;30;20517;-74
2022/03/21 01:22:43;;;;;;;55.58;39.88;;;;;;;-1.53;87.94;103017.03;4752183;30;20095;-74
2022/03/21 01:25:10;;;;;;;56.42;39.67;;;;;;;-1.55;88.11;103022.88;4752443;30;20111;-75
2022/03/21 01:27:36;;;;;;;58.50;41.58;;;;;;;-1.50;89.30;103023.84;4752271;30;20036;-75
2022/03/21 01:30:06;;;;;;;61.08;41.08;;;;;;;-1.67;88.83;102997.25;4752361;30;20043;-75
2022/03/21 01:32:34;;;;;;;56.10;40.10;;;;;;;-1.67;88.39;102995.63;4752089;30;20109;-74
2022/03/21 01:35:04;;;;;;;55.55;39.38;;;;;;;-1.54;89.06;103019.53;4752102;30;20032;-75
2022/03/21 01:37:29;;;;;;;58.38;41.80;;;;;;;-1.56;nan;103022.03;4752380;30;20032;-74
2022/03/21 01:39:55;;;;;;;54.05;39.78;;;;;;;-1.65;88.80;103005.78;4752126;30;20036;-74
2022/03/21 01:42:20;;;;;;;55.83;40.92;;;;;;;-1.57;88.85;103020.34;4752210;30;20478;-74
2022/03/21 01:44:50;;;;;;;55.83;40.80;;;;;;;-1.57;88.95;103027.94;4752043;30;20490;-74
2022/03/21 01:47:15;;;;;;;57.85;41.65;;;;;;;-1.59;88.91;103026.16;4751772;30;20036;-75
2022/03/21 01:49:41;;;;;;;57.42;41.08;;;;;;;-1.60;88.59;103025.31;4721279;30;20118;-75
2022/03/21 01:52:06;;;;;;;57.00;41.20;;;;;;;-1.83;88.51;102993.53;4751822;30;20047;-74
2022/03/21 01:57:15;;;;;;;58.50;39.22;;;;;;;-1.69;89.03;103029.31;4752073;30;20512;-74
2022/03/21 01:59:41;;;;;;;53.88;37.28;;;;;;;-1.72;88.99;103017.44;4751982;30;20028;-74
2022/03/21 02:02:06;;;;;;;57.47;39.38;;;;;;;-1.78;89.15;103012.22;4751894;30;20044;-74
2022/03/21 02:04:33;;;;;;;55.97;38.30;;;;;;;-1.72;88.99;103022.50;4751841;30;20043;-75
2022/03/21 02:06:58;;;;;;;55.30;39.22;;;;;;;-1.76;89.09;103023.25;4752011;30;20399;-74
2022/03/21 02:09:24;;;;;;;52.58;37.35;;;;;;;-1.93;89.22;102997.53;4751622;30;20028;-75
2022/03/21 02:11:49;;;;;;;51.95;38.42;;;;;;;-1.89;89.08;103009.44;4751875;30;20053;-75
2022/03/21 02:14:15;;;;;;;55.10;38.28;;;;;;;-1.83;89.65;103013.81;4751944;30;20462;-74
2022/03/21 02:16:40;;;;;;;52.83;37.47;;;;;;;-1.98;90.75;102978.84;4751814;30;20035;-74
2022/03/21 02:19:15;;;;;;;53.92;36.95;;;;;;;-1.74;90.04;103022.47;4751613;30;20048;-74
2022/03/21 02:21:48;;;;;;;51.22;37.17;;;;;;;-1.74;90.46;103027.53;4751879;30;20032;-74
2022/03/21 02:24:33;;;;;;;50.17;34.92;;;;;;;-1.82;90.04;103023.97;4751911;30;20464;-77
2022/03/21 02:27:01;;;;;;;47.70;34.35;;;;;;;-1.82;89.89;103030.72;4751680;30;20036;-74
2022/03/21 02:29:27;;;;;;;49.38;34.67;;;;;;;-1.87;89.51;103019.59;4751637;30;20036;-74
2022/03/21 02:31:55;;;;;;;50.60;34.85;;;;;;;-1.91;90.01;103020.34;4751684;30;20389;-75
2022/03/21 02:34:24;;;;;;;52.58;35.13;;;;;;;-1.95;89.96;103027.03;4751627;30;20039;-74
2022/03/21 02:36:54;;;;;;;51.83;36.22;;;;;;;-1.97;90.12;103027.78;4735290;30;20048;-74
2022/03/21 02:39:20;;;;;;;51.35;37.08;;;;;;;-2.16;90.54;103003.75;4751326;30;20106;-74
2022/03/21 02:41:45;;;;;;;53.97;36.95;;;;;;;-1.93;91.21;103034.66;4751411;30;20461;-74
2022/03/21 02:44:11;;;;;;;52.90;36.85;;;;;;;-1.94;90.11;103032.97;4751649;30;20051;-74
2022/03/21 02:46:37;;;;;;;53.42;35.92;;;;;;;-1.98;90.35;103036.22;4751467;30;20040;-75
2022/03/21 02:49:02;;;;;;;51.55;35.90;;;;;;;-2.01;90.32;103026.88;4751531;30;20502;-74
2022/03/21 02:51:31;;;;;;;55.42;36.97;;;;;;;-2.00;90.49;103032.78;4751280;30;20025;-74
2022/03/21 02:53:57;;;;;;;54.05;36.63;;;;;;;-2.03;90.47;103028.53;4751567;30;20120;-75
2022/03/21 02:56:22;;;;;;;52.17;36.63;;;;;;;-2.06;90.01;103031.00;4751479;30;20119;-74
2022/03/21 02:58:48;;;;;;;55.97;36.80;;;;;;;-2.51;89.74;102955.63;4736875;30;20048;-74
2022/03/21 03:01:16;;;;;;;53.60;36.40;;;;;;;-2.11;90.20;103033.38;4754678;30;20029;-75
2022/03/21 03:03:42;;;;;;;55.33;38.50;;;;;;;-2.11;90.40;103037.59;4754389;30;20036;-75
2022/03/21 03:06:08;;;;;;;54.42;38.25;;;;;;;-2.14;90.47;103028.25;4754709;30;20090;-74
2022/03/21 03:08:34;;;;;;;50.00;36.72;;;;;;;-2.16;90.31;103032.44;4754406;30;20032;-76
2022/03/21 03:11:00;;;;;;;53.38;36.35;;;;;;;-2.16;90.16;103026.53;4754361;30;20029;-75
2022/03/21 03:13:25;;;;;;;53.85;37.95;;;;;;;-2.38;89.89;102995.59;4754368;30;20035;-74
2022/03/21 03:15:51;;;;;;;52.97;37.10;;;;;;;-2.32;90.35;103005.88;4754080;30;20024;-73
2022/03/21 03:18:17;;;;;;;52.40;36.75;;;;;;;-2.24;90.21;103016.19;4754298;30;20768;-74
2022/03/21 03:20:51;;;;;;;55.90;37.63;;;;;;;-2.20;90.17;103020.50;4754110;30;20125;-75
2022/03/21 03:23:22;;;;;;;53.75;38.13;;;;;;;-2.36;90.53;103000.69;4737543;30;20068;-75
2022/03/21 03:25:53;;;;;;;54.95;38.00;;;;;;;-2.28;90.09;103028.72;4754483;30;20115;-76
2022/03/21 03:28:18;;;;;;;55.30;39.05;;;;;;;-2.39;90.11;103005.69;4754203;30;20115;-74
2022/03/21 03:30:44;;;;;;;53.95;38.25;;;;;;;-2.27;90.62;103033.81;4753922;30;20123;-75
2022/03/21 03:33:09;;;;;;;55.50;37.83;;;;;;;-2.34;90.61;103021.84;4754118;30;20043;-75
2022/03/21 03:35:35;;;;;;;53.88;37.47;;;;;;;-2.32;90.16;103036.25;4753910;30;20485;-74
2022/03/21 03:38:04;;;;;;;54.78;38.10;;;;;;;-2.32;90.45;103040.44;4753888;30;20051;-75
2022/03/21 03:40:30;;;;;;;53.65;37.33;;;;;;;-2.33;90.45;103031.16;4753803;30;20029;-74
2022/03/21 03:42:55;;;;;;;58.38;39.08;;;;;;;-2.35;90.25;103036.19;4753886;30;20028;-76
2022/03/21 03:45:20;;;;;;;57.58;38.83;;;;;;;-2.40;90.58;103029.28;4753453;30;20110;-75
2022/03/21 03:47:46;;;;;;;60.67;41.15;;;;;;;-2.37;90.62;103031.88;4753701;30;20440;-74
2022/03/21 03:50:11;;;;;;;58.47;39.30;;;;;;;-2.46;90.81;103022.41;4754178;30;20116;-75
2022/03/21 03:52:37;;;;;;;58.50;39.75;;;;;;;-2.50;90.40;103019.72;4753478;30;20032;-75
2022/03/21 03:55:02;;;;;;;58.65;39.85;;;;;;;-2.39;90.92;103034.38;4753673;30;20067;-80
2022/03/21 03:57:27;;;;;;;59.13;40.72;;;;;;;-2.40;90.79;103039.38;4753532;30;20032;-78
2022/03/21 03:59:54;;;;;;;56.88;40.30;;;;;;;-2.49;91.04;103034.09;4753362;30;20044;-78
2022/03/21 04:02:19;;;;;;;57.25;39.72;;;;;;;-2.61;90.72;103017.78;4753315;30;20474;-74
2022/03/21 04:04:44;;;;;;;58.85;40.55;;;;;;;-2.43;90.99;103046.91;4753772;30;20040;-74
2022/03/21 04:07:10;;;;;;;61.78;42.45;;;;;;;-2.70;90.67;103002.34;4753315;30;20039;-76
2022/03/21 04:09:35;;;;;;;58.17;40.22;;;;;;;-2.50;90.59;103045.03;4753128;30;20039;-74
2022/03/21 04:12:02;;;;;;;59.33;41.25;;;;;;;-2.49;90.82;103047.59;4753179;30;20547;-77
2022/03/21 04:14:28;;;;;;;64.60;42.08;;;;;;;-2.48;91.06;103043.38;4753435;30;20036;-73
2022/03/21 04:16:53;;;;;;;55.85;39.92;;;;;;;-2.74;90.76;103004.78;4753274;30;20036;-81
2022/03/21 04:19:18;;;;;;;58.50;41.78;;;;;;;-2.60;90.74;103029.59;4753240;30;20125;-74
2022/03/21 04:21:44;;;;;;;57.67;40.38;;;;;;;-2.71;91.11;103017.50;4753288;30;20056;-74
2022/03/21 04:24:09;;;;;;;59.55;41.65;;;;;;;-2.49;90.94;103051.78;4753164;30;20031;-78
2022/03/21 04:26:34;;;;;;;58.35;40.42;;;;;;;-2.51;91.14;103056.81;4753124;30;20509;-74
2022/03/21 04:29:04;;;;;;;62.33;42.15;;;;;;;-2.65;90.86;103028.66;4753191;30;20032;-74
2022/03/21 04:31:30;;;;;;;62.55;40.65;;;;;;;-2.61;91.51;103034.63;4753020;30;20032;-75
2022/03/21 04:33:55;;;;;;;63.72;42.92;;;;;;;-2.54;91.02;103043.25;4752863;30;20036;-74
2022/03/21 04:36:20;;;;;;;59.80;42.30;;;;;;;-2.81;91.28;103002.91;4753150;30;20042;-74
2022/03/21 04:38:46;;;;;;;63.58;41.63;;;;;;;-2.55;91.35;103039.88;4752977;30;20025;-80
2022/03/21 04:41:12;;;;;;;61.05;41.85;;;;;;;-2.90;91.52;102986.66;4752966;30;20094;-81
2022/03/21 04:43:43;;;;;;;62.00;40.35;;;;;;;-2.69;91.72;103029.34;4752890;30;20503;-71
2022/03/21 04:46:08;;;;;;;58.22;40.50;;;;;;;-2.83;91.46;103010.44;4752849;30;20060;-81
2022/03/21 04:48:33;;;;;;;59.85;40.17;;;;;;;-2.79;91.20;103016.44;4752673;30;20123;-81
2022/03/21 04:50:59;;;;;;;61.17;41.92;;;;;;;-2.59;91.40;103050.69;4753001;30;20056;-75
2022/03/21 04:53:24;;;;;;;65.13;42.20;;;;;;;-2.57;91.46;103048.19;4752405;30;20044;-79
2022/03/21 04:55:49;;;;;;;60.38;41.25;;;;;;;-2.58;91.48;103041.44;4752527;30;20098;-75
2022/03/21 04:58:15;;;;;;;62.83;42.60;;;;;;;-2.54;91.72;103058.41;4752548;30;20086;-72
2022/03/21 05:00:40;;;;;;;62.63;42.13;;;;;;;-2.57;91.82;103056.66;4752633;30;20036;-74
2022/03/21 05:03:07;;;;;;;61.28;41.50;;;;;;;-2.56;92.26;103060.88;4752410;30;20048;-81
2022/03/21 05:05:37;;;;;;;62.85;41.28;;;;;;;-2.55;91.45;103061.78;4735880;30;20079;-83
2022/03/21 05:08:04;;;;;;;62.72;42.05;;;;;;;-2.57;91.54;103063.38;4752254;30;20047;-81
2022/03/21 05:10:30;;;;;;;65.55;42.92;;;;;;;-2.67;91.79;103044.56;4752153;30;20469;-82
2022/03/21 05:12:57;;;;;;;62.75;41.88;;;;;;;-2.65;92.05;103048.88;4735939;30;20402;-82
2022/03/21 05:15:22;;;;;;;61.15;41.22;;;;;;;-2.58;91.77;103067.56;4752347;30;20036;-83
2022/03/21 05:17:47;;;;;;;58.15;40.83;;;;;;;-2.59;92.12;103070.94;4752228;30;20036;-81
2022/03/21 05:20:17;;;;;;;62.25;40.33;;;;;;;-2.60;92.10;103072.59;4752123;30;20509;-75
2022/03/21 05:31:03;;;;;;;60.15;38.92;;;;;;;-2.63;91.98;103076.72;4752409;30;20043;-74
2022/03/21 05:36:13;;;;;;;57.28;38.47;;;;;;;-2.64;92.62;103075.03;4752188;30;20043;-74
2022/03/21 05:38:39;;;;;;;63.92;40.65;;;;;;;-2.69;92.18;103064.75;4752007;30;20032;-83
2022/03/21 05:41:04;;;;;;;61.45;39.28;;;;;;;-2.65;92.36;103071.63;4751923;30;20488;-80
2022/03/21 05:43:33;;;;;;;59.28;37.63;;;;;;;-2.73;92.16;103057.06;4752087;30;20070;-78
2022/03/21 05:46:01;;;;;;;59.97;38.80;;;;;;;-2.58;92.37;103071.78;4752125;30;20068;-74
2022/03/21 05:51:12;;;;;;;58.33;38.28;;;;;;;-2.68;92.19;103048.78;4752282;30;20055;-75
2022/03/21 05:53:40;;;;;;;57.25;38.28;;;;;;;-2.55;92.20;103062.63;4751734;30;20032;-79
2022/03/21 05:56:05;;;;;;;60.00;38.92;;;;;;;-2.46;92.19;103073.00;4751758;30;20093;-75
2022/03/21 05:58:30;;;;;;;59.00;39.58;;;;;;;-2.39;92.57;103076.53;4751871;30;20397;-74
2022/03/21 06:00:57;;;;;;;62.92;38.72;;;;;;;-2.42;92.97;103057.06;4751928;30;20028;-75
2022/03/21 06:03:24;;;;;;;58.17;37.83;;;;;;;-2.24;92.51;103081.16;4751707;30;20043;-73
2022/03/21 06:05:50;;;;;;;59.92;37.55;;;;;;;-2.29;92.92;103053.16;4751716;30;20049;-74
2022/03/21 06:08:15;;;;;;;57.70;37.10;;;;;;;-2.04;93.10;103083.38;4751832;30;20032;-73
2022/03/21 06:10:41;;;;;;;60.15;38.17;;;;;;;-2.16;92.48;103052.69;4751624;30;20063;-74
2022/03/21 06:13:06;;;;;;;53.40;36.08;;;;;;;-1.92;92.30;103076.88;4735579;30;20052;-74
2022/03/21 06:15:36;;;;;;;55.17;35.92;;;;;;;-1.99;92.56;103055.63;4751697;30;20090;-74
2022/03/21 06:18:02;;;;;;;53.55;36.53;;;;;;;-1.78;91.94;103090.72;4751595;30;20033;-74
2022/03/21 06:20:28;;;;;;;56.75;36.55;;;;;;;-1.75;91.47;103089.16;4751539;30;20194;-74
2022/03/21 06:22:54;;;;;;;54.75;34.85;;;;;;;-1.90;91.09;103052.44;4751516;30;20063;-74
2022/03/21 06:25:19;;;;;;;54.78;34.95;;;;;;;-1.55;91.63;103094.69;4751418;30;20179;-74
2022/03/21 06:27:45;;;;;;;52.33;34.33;;;;;;;-1.70;91.15;103047.84;4751640;30;20040;-74
2022/03/21 06:30:11;;;;;;;54.35;35.63;;;;;;;-1.51;90.95;103078.72;4751740;30;20053;-80
2022/03/21 06:32:37;;;;;;;54.38;34.97;;;;;;;-1.30;90.68;103102.84;4752693;30;20129;-81
2022/03/21 06:35:04;;;;;;;55.60;35.75;;;;;;;-1.23;90.39;103102.16;4738947;30;20039;-74
2022/03/21 06:37:32;;;;;;;55.67;36.03;;;;;;;-1.08;90.75;103102.50;4754924;30;20481;-74
2022/03/21 06:39:58;;;;;;;49.95;34.13;;;;;;;-0.97;89.85;103105.28;4754632;30;20032;-75
2022/03/21 06:42:23;;;;;;;53.05;35.33;;;;;;;-0.87;90.29;103100.41;4754988;30;20053;-76
2022/03/21 06:44:49;;;;;;;51.97;34.78;;;;;;;-0.94;89.67;103070.69;4754710;30;20047;-74
2022/03/21 06:47:15;;;;;;;47.90;33.40;;;;;;;-0.52;89.45;103109.56;4754768;30;20059;-76
2022/03/21 06:49:41;;;;;;;54.58;35.40;;;;;;;0.20;89.39;103114.25;4754834;30;20028;-77
2022/03/21 06:52:08;;;;;;;54.33;35.72;;;;;;;1.48;87.18;103108.44;4754693;30;20028;-77
2022/03/21 06:54:34;;;;;;;49.88;33.25;;;;;;;2.81;81.82;103101.91;4754442;30;20032;-75
2022/03/21 06:57:00;;;;;;;47.53;31.92;;;;;;;4.06;79.39;103081.84;4754545;30;20032;-77
2022/03/21 06:59:25;;;;;;;47.63;32.88;;;;;;;5.00;76.66;103070.56;4754599;30;20029;-79
2022/03/21 07:01:50;;;;;;;47.85;32.17;;;;;;;6.03;72.68;103096.50;4754423;30;20109;-76
2022/03/21 07:04:16;;;;;;;42.45;29.38;;;;;;;6.53;69.28;103051.59;4738177;30;20058;-76
2022/03/21 07:06:41;;;;;;;42.83;28.75;;;;;;;6.78;67.06;103109.50;4754465;30;20445;-73
2022/03/21 07:09:07;;;;;;;41.40;28.00;;;;;;;6.04;69.27;103108.47;4754297;30;20551;-74
2022/03/21 07:11:34;;;;;;;48.20;29.35;;;;;;;5.05;73.39;103078.25;4754165;30;20075;-77
2022/03/21 07:14:01;;;;;;;47.20;30.60;;;;;;;4.54;75.44;103119.34;4754182;30;20393;-75
2022/03/21 07:16:29;;;;;;;43.25;29.52;;;;;;;3.93;77.16;103103.13;4754254;30;20068;-75
2022/03/21 07:18:54;;;;;;;43.80;30.13;;;;;;;3.61;78.50;103113.28;4754133;30;20066;-74
2022/03/21 07:21:20;;;;;;;42.42;30.38;;;;;;;3.42;80.29;103125.16;4754233;30;20499;-80
2022/03/21 07:23:46;;;;;;;44.25;31.02;;;;;;;3.21;81.58;103125.94;4754240;30;20033;-75
2022/03/21 07:26:12;;;;;;;48.78;31.50;;;;;;;3.11;83.79;103126.72;4753883;30;20442;-75
2022/03/21 07:28:38;;;;;;;47.58;31.00;;;;;;;3.04;84.98;103122.44;4753694;30;20032;-75
2022/03/21 07:31:03;;;;;;;47.47;32.78;;;;;;;2.95;86.12;103115.59;4754091;30;20039;-74
2022/03/21 07:33:29;;;;;;;46.33;31.67;;;;;;;2.87;86.17;103113.00;4753979;30;20123;-74
2022/03/21 07:35:54;;;;;;;52.72;36.80;;;;;;;2.98;87.93;103128.38;4753995;30;20047;-74
2022/03/21 07:38:22;;;;;;;45.08;33.20;;;;;;;3.03;89.20;103119.03;4737944;30;20414;-74
2022/03/21 07:40:47;;;;;;;50.65;33.92;;;;;;;2.91;89.64;103100.25;4753831;30;20036;-74
2022/03/21 07:43:17;;;;;;;47.25;35.30;;;;;;;3.09;90.70;103108.00;4753559;30;20047;-84
2022/03/21 07:48:29;;;;;;;49.08;32.83;;;;;;;3.21;91.07;103118.25;4754594;30;20129;-74
2022/03/21 07:50:54;;;;;;;41.95;30.67;;;;;;;3.26;90.79;103108.94;4737641;30;20405;-76
2022/03/21 07:53:20;;;;;;;42.90;30.65;;;;;;;3.36;91.09;103109.81;4753370;30;20043;-75
2022/03/21 07:55:45;;;;;;;48.35;30.63;;;;;;;3.59;91.28;103136.28;4753691;30;20028;-73
2022/03/21 07:58:12;;;;;;;42.58;29.98;;;;;;;3.70;91.00;103136.31;4753521;30;20047;-74
2022/03/21 08:00:38;;;;;;;42.33;28.77;;;;;;;3.71;90.82;103120.13;4753825;30;20024;-74
2022/03/21 08:03:03;;;;;;;47.40;28.27;;;;;;;3.91;90.85;103133.81;4753499;30;20480;-75
2022/03/21 08:05:29;;;;;;;43.00;29.30;;;;;;;4.06;91.31;103134.69;4753574;30;20036;-74
2022/03/21 08:07:55;;;;;;;39.05;26.50;;;;;;;4.16;91.02;103138.97;4737498;30;20437;-74
2022/03/21 08:10:21;;;;;;;42.05;28.45;;;;;;;4.23;90.87;103123.63;4753384;30;20101;-74
2022/03/21 08:12:47;;;;;;;39.60;27.08;;;;;;;4.45;90.71;103134.69;4753290;30;20090;-72
2022/03/21 08:15:13;;;;;;;36.78;24.67;;;;;;;4.55;90.27;103133.84;4753276;30;20036;-72
2022/03/21 08:17:52;;;;;;;36.97;25.73;;;;;;;4.68;89.61;103138.94;4753304;30;20040;-74
2022/03/21 08:20:18;;;;;;;35.83;23.42;;;;;;;4.84;88.92;103140.63;4753225;30;20074;-74
2022/03/21 08:22:44;;;;;;;31.20;21.63;;;;;;;5.10;87.83;103141.38;4753264;30;20107;-71
2022/03/21 08:25:14;;;;;;;33.80;21.52;;;;;;;5.25;87.21;103144.78;4753064;30;20118;-75
2022/03/21 08:27:39;;;;;;;32.83;21.45;;;;;;;5.35;86.41;103146.44;4753288;30;20032;-72
2022/03/21 08:30:07;;;;;;;31.27;21.77;;;;;;;5.41;85.96;103125.94;4753093;30;20062;-73
2022/03/21 08:32:32;;;;;;;33.85;20.88;;;;;;;5.63;84.99;103137.75;4752474;30;20065;-74
2022/03/21 08:35:00;;;;;;;33.25;20.92;;;;;;;5.81;84.91;103141.09;4753172;30;20024;-83
2022/03/21 08:37:25;;;;;;;28.15;19.35;;;;;;;5.89;83.94;103132.47;4753051;30;20040;-80
2022/03/21 08:39:50;;;;;;;32.38;20.55;;;;;;;6.04;83.31;103136.69;4753076;30;20090;-84
2022/03/21 08:42:21;;;;;;;30.45;19.83;;;;;;;6.18;83.08;103137.41;4752944;30;20032;-81
2022/03/21 08:44:47;;;;;;;30.02;19.55;;;;;;;5.99;82.47;103087.97;4752877;30;20063;-83
2022/03/21 08:47:16;;;;;;;28.35;19.05;;;;;;;6.16;81.93;103099.81;4752913;30;20059;-81
2022/03/21 08:49:41;;;;;;;28.00;19.00;;;;;;;6.16;81.52;103089.56;4752740;30;20085;-78
2022/03/21 08:52:06;;;;;;;26.83;18.35;;;;;;;6.54;80.42;103125.16;4752686;30;20024;-83
2022/03/21 08:54:32;;;;;;;31.42;18.48;;;;;;;6.67;79.00;103125.88;4752557;30;20474;-81
2022/03/21 08:56:58;;;;;;;23.42;16.55;;;;;;;6.67;78.84;103108.75;4751757;30;20052;-80
2022/03/21 08:59:24;;;;;;;25.90;17.33;;;;;;;6.73;78.44;103103.56;4752448;30;20031;-79
2022/03/21 09:01:50;;;;;;;26.15;16.42;;;;;;;6.97;78.19;103130.69;4752588;30;20070;-80
2022/03/21 09:04:15;;;;;;;26.60;17.05;;;;;;;6.76;77.15;103077.84;4752685;30;20032;-82
2022/03/21 09:06:41;;;;;;;25.10;17.20;;;;;;;7.21;76.52;103129.56;4736526;30;20055;-82
2022/03/21 09:09:06;;;;;;;23.45;15.90;;;;;;;7.09;76.29;103083.47;4752318;30;20553;-82
2022/03/21 09:11:32;;;;;;;28.55;16.10;;;;;;;7.26;75.42;103102.09;4752588;30;20107;-82
2022/03/21 09:13:57;;;;;;;25.10;17.08;;;;;;;7.40;75.43;103114.78;4736000;30;20383;-82
2022/03/21 09:16:22;;;;;;;27.70;17.60;;;;;;;7.53;74.91;103123.16;4752420;30;20082;-82
2022/03/21 09:18:48;;;;;;;26.35;15.85;;;;;;;7.65;74.04;103134.13;4752324;30;20563;-82
2022/03/21 09:21:13;;;;;;;25.35;16.75;;;;;;;7.73;74.10;103136.59;4751921;30;20151;-78
2022/03/21 09:23:40;;;;;;;25.67;16.83;;;;;;;7.88;73.56;103127.81;4752139;30;20062;-82
2022/03/21 09:26:10;;;;;;;22.42;16.25;;;;;;;7.81;72.95;103103.91;4752309;30;20028;-81
2022/03/21 09:28:36;;;;;;;23.30;15.23;;;;;;;8.09;73.36;103121.50;4752191;30;20069;-81
2022/03/21 09:31:01;;;;;;;25.30;15.93;;;;;;;8.17;73.06;103117.94;4752480;30;20032;-82
2022/03/21 09:33:27;;;;;;;25.33;16.23;;;;;;;8.09;73.64;103090.63;4752051;30;20059;-82
2022/03/21 09:35:52;;;;;;;25.63;16.45;;;;;;;8.31;72.06;103105.66;4735824;30;20051;-82
2022/03/21 09:38:18;;;;;;;23.38;16.13;;;;;;;8.38;71.98;103113.31;4752030;30;20039;-81
2022/03/21 09:41:04;;;;;;;22.65;16.17;;;;;;;8.50;73.26;103115.69;4752120;30;20035;-81
2022/03/21 09:43:30;;;;;;;27.23;16.77;;;;;;;8.41;72.89;103087.53;4796579;24;20148;-81
2022/03/21 09:45:57;;;;;;;26.75;17.75;;;;;;;7.84;72.63;102971.81;4717280;30;20108;-76
2022/03/21 09:48:26;;;;;;;24.15;18.08;;;;;;;8.41;71.31;103062.63;4737465;24;20057;-73
2022/03/21 09:50:52;;;;;;;25.88;18.17;;;;;;;8.82;69.68;103107.34;4734778;30;20025;-74
2022/03/21 09:53:18;;;;;;;21.65;16.88;;;;;;;8.74;70.75;103089.47;4734674;30;20377;-81
2022/03/21 09:55:45;;;;;;;24.02;17.13;;;;;;;8.88;69.99;103102.09;4734584;30;20423;-80
2022/03/21 09:58:11;;;;;;;26.05;17.60;;;;;;;9.09;70.03;103096.50;4734024;30;20036;-79
2022/03/21 10:00:39;;;;;;;26.70;18.20;;;;;;;8.97;69.34;103063.25;4734274;30;20387;-79
2022/03/21 10:03:18;;;;;;;23.15;17.23;;;;;;;9.26;69.65;103105.63;4734203;30;20024;-81
2022/03/21 10:05:46;;;;;;;22.67;16.10;;;;;;;9.15;68.61;103077.50;4734263;30;20041;-79
2022/03/21 10:08:21;;;;;;;22.48;16.85;;;;;;;9.34;68.65;103101.13;4736491;30;20036;-79
2022/03/21 10:11:06;;;;;;;26.25;16.55;;;;;;;9.38;69.24;103097.63;4738184;30;20448;-77
2022/03/21 10:13:34;;;;;;;23.73;15.85;;;;;;;9.34;67.96;103077.94;4737033;30;20049;-81
2022/03/21 10:16:09;;;;;;;23.77;15.77;;;;;;;9.47;67.69;103089.69;4737670;30;20036;-81
2022/03/21 10:18:36;;;;;;;24.30;16.50;;;;;;;9.52;66.94;103084.41;4737663;30;20105;-79
2022/03/21 10:21:15;;;;;;;25.08;17.63;;;;;;;9.58;68.10;103069.66;4737559;30;20151;-81
2022/03/21 10:23:44;;;;;;;21.73;15.27;;;;;;;9.77;66.34;103083.81;4737434;30;20470;-79
2022/03/21 10:26:31;;;;;;;21.90;15.60;;;;;;;9.91;67.44;103075.75;4721889;30;20076;-76
2022/03/21 10:28:59;;;;;;;25.48;15.07;;;;;;;10.09;66.31;103086.50;4737326;30;20041;-79
2022/03/21 10:31:53;;;;;;;22.63;14.82;;;;;;;10.04;65.48;103068.56;4737428;30;20443;-79
2022/03/21 10:34:21;;;;;;;25.70;17.80;;;;;;;10.23;65.11;103087.06;4737348;30;20094;-77
2022/03/21 10:37:22;;;;;;;25.67;16.02;;;;;;;10.03;65.00;103034.16;4737379;30;20039;-78
2022/03/21 10:39:51;;;;;;;24.17;16.20;;;;;;;10.31;63.23;103062.72;4736448;30;20068;-80
2022/03/21 10:42:16;;;;;;;21.90;14.75;;;;;;;10.42;64.05;103056.41;4737364;30;20053;-80
2022/03/21 10:44:54;;;;;;;24.40;13.95;;;;;;;10.54;62.97;103061.28;4735530;30;20071;-80
2022/03/21 10:47:19;;;;;;;20.17;14.07;;;;;;;10.43;62.08;103022.81;4724419;30;20048;-80
2022/03/21 10:49:45;;;;;;;22.17;14.65;;;;;;;10.48;61.22;103030.44;4736984;30;20041;-80
2022/03/21 10:52:21;;;;;;;21.67;15.88;;;;;;;10.69;62.30;103066.00;4737075;30;20114;-82
2022/03/21 10:54:48;;;;;;;22.55;15.25;;;;;;;10.86;60.69;103078.47;4736938;30;20508;-82
2022/03/21 10:57:31;;;;;;;22.67;15.15;;;;;;;10.77;62.35;103052.88;4737223;30;20037;-81
2022/03/21 11:00:18;;;;;;;21.30;15.13;;;;;;;10.87;61.22;103052.56;4736668;30;20041;-80
2022/03/21 11:02:58;;;;;;;19.95;14.98;;;;;;;11.17;61.01;103076.69;4737182;30;20035;-81
2022/03/21 11:05:34;;;;;;;21.25;14.65;;;;;;;11.24;59.60;103067.00;4737055;30;20028;-79
2022/03/21 11:08:00;;;;;;;22.42;15.52;;;;;;;11.40;59.14;103069.97;4736832;30;20071;-79
2022/03/21 11:10:26;;;;;;;22.90;16.08;;;;;;;11.53;59.16;103060.94;4735670;30;20094;-79
2022/03/21 11:13:25;;;;;;;25.10;17.23;;;;;;;11.41;61.12;103046.66;4736619;30;20044;-80
2022/03/21 11:15:53;;;;;;;28.50;16.63;;;;;;;10.67;59.27;102917.91;4682319;30;20075;-79
2022/03/21 11:18:28;;;;;;;22.02;16.70;;;;;;;10.74;60.34;102906.50;4682405;30;20137;-81
2022/03/21 11:20:56;;;;;;;25.20;18.15;;;;;;;11.09;58.53;102943.34;4682251;30;20072;-79
2022/03/21 11:23:33;;;;;;;20.90;15.40;;;;;;;11.30;58.83;102967.66;4682576;30;20061;-81
2022/03/21 11:26:55;;;;;;;22.30;15.85;;;;;;;11.86;60.04;103053.03;4682636;30;20054;-81
2022/03/21 11:29:55;;;;;;;;;;;;;;;11.89;61.09;103058.94;4656159;30;20048;-82
2022/03/21 11:33:20;;;;;;;23.33;15.30;;;;;;;11.01;59.64;102897.06;4682379;30;19919;-83
2022/03/21 11:39:00;;;;;;;24.45;15.80;;;;;;;11.61;59.64;102983.06;4674585;30;20420;-79